sensor_id;sensor_type;location;lat;lon;timestamp;P1;durP1;ratioP1;P2;durP2;ratioP2
5412;SDS011;2729;50.056;8.678;2023-08-08T00:00:10;5.50;;;2.33;;
5412;SDS011;2729;50.056;8.678;2023-08-08T00:02:35;7.67;;;2.30;;
5412;SDS011;2729;50.056;8.678;2023-08-08T00:05:01;2.50;;;2.00;;
5412;SDS011;2729;50.056;8.678;2023-08-08T00:07:27;2.23;;;2.00;;
5412;SDS011;2729;50.056;8.678;2023-08-08T00:09:56;4.00;;;2.30;;
5412;SDS011;2729;50.056;8.678;2023-08-08T00:12:23;2.20;;;2.00;;
5412;SDS011;2729;50.056;8.678;2023-08-08T00:14:49;10.03;;;2.30;;
5412;SDS011;2729;50.056;8.678;2023-08-08T00:17:14;5.00;;;1.80;;
5412;SDS011;2729;50.056;8.678;2023-08-08T00:19:40;4.63;;;2.10;;
5412;SDS011;2729;50.056;8.678;2023-08-08T00:22:09;4.33;;;2.27;;
5412;SDS011;2729;50.056;8.678;2023-08-08T00:24:34;7.63;;;2.23;;
5412;SDS011;2729;50.056;8.678;2023-08-08T00:27:01;2.10;;;1.93;;
5412;SDS011;2729;50.056;8.678;2023-08-08T00:29:27;3.60;;;2.30;;
5412;SDS011;2729;50.056;8.678;2023-08-08T00:31:53;2.10;;;2.00;;
5412;SDS011;2729;50.056;8.678;2023-08-08T00:34:18;4.33;;;2.20;;
5412;SDS011;2729;50.056;8.678;2023-08-08T00:36:44;5.13;;;2.30;;
5412;SDS011;2729;50.056;8.678;2023-08-08T00:39:11;2.40;;;2.20;;
5412;SDS011;2729;50.056;8.678;2023-08-08T00:41:37;2.10;;;2.00;;
5412;SDS011;2729;50.056;8.678;2023-08-08T00:44:03;3.40;;;2.20;;
5412;SDS011;2729;50.056;8.678;2023-08-08T00:46:28;2.87;;;2.50;;
5412;SDS011;2729;50.056;8.678;2023-08-08T00:48:57;2.07;;;1.80;;
5412;SDS011;2729;50.056;8.678;2023-08-08T00:51:22;2.17;;;2.07;;
5412;SDS011;2729;50.056;8.678;2023-08-08T00:53:49;2.30;;;2.00;;
5412;SDS011;2729;50.056;8.678;2023-08-08T00:56:15;2.10;;;2.00;;
5412;SDS011;2729;50.056;8.678;2023-08-08T00:58:42;4.00;;;2.03;;
5412;SDS011;2729;50.056;8.678;2023-08-08T01:01:11;2.40;;;2.20;;
5412;SDS011;2729;50.056;8.678;2023-08-08T01:03:36;2.17;;;2.07;;
5412;SDS011;2729;50.056;8.678;2023-08-08T01:06:04;2.10;;;2.00;;
5412;SDS011;2729;50.056;8.678;2023-08-08T01:08:33;1.93;;;1.83;;
5412;SDS011;2729;50.056;8.678;2023-08-08T01:11:00;2.20;;;2.10;;
5412;SDS011;2729;50.056;8.678;2023-08-08T01:13:27;3.80;;;2.10;;
5412;SDS011;2729;50.056;8.678;2023-08-08T01:15:54;7.40;;;2.00;;
5412;SDS011;2729;50.056;8.678;2023-08-08T01:18:21;10.53;;;2.40;;
5412;SDS011;2729;50.056;8.678;2023-08-08T01:20:48;2.73;;;2.53;;
5412;SDS011;2729;50.056;8.678;2023-08-08T01:25:46;2.13;;;2.03;;
5412;SDS011;2729;50.056;8.678;2023-08-08T01:28:13;3.17;;;2.97;;
5412;SDS011;2729;50.056;8.678;2023-08-08T01:30:39;4.13;;;2.10;;
5412;SDS011;2729;50.056;8.678;2023-08-08T01:33:05;3.67;;;2.20;;
5412;SDS011;2729;50.056;8.678;2023-08-08T01:35:31;2.40;;;2.20;;
5412;SDS011;2729;50.056;8.678;2023-08-08T01:38:08;3.97;;;2.03;;
5412;SDS011;2729;50.056;8.678;2023-08-08T01:40:35;2.90;;;2.23;;
5412;SDS011;2729;50.056;8.678;2023-08-08T01:43:00;2.53;;;2.27;;
5412;SDS011;2729;50.056;8.678;2023-08-08T01:45:27;2.73;;;2.27;;
5412;SDS011;2729;50.056;8.678;2023-08-08T01:47:54;2.20;;;2.10;;
5412;SDS011;2729;50.056;8.678;2023-08-08T01:50:20;2.00;;;1.90;;
5412;SDS011;2729;50.056;8.678;2023-08-08T01:52:47;7.87;;;2.33;;
5412;SDS011;2729;50.056;8.678;2023-08-08T01:55:12;4.60;;;2.13;;
5412;SDS011;2729;50.056;8.678;2023-08-08T01:57:38;2.90;;;2.70;;
5412;SDS011;2729;50.056;8.678;2023-08-08T02:00:04;4.47;;;2.20;;
5412;SDS011;2729;50.056;8.678;2023-08-08T02:02:40;9.43;;;2.13;;
5412;SDS011;2729;50.056;8.678;2023-08-08T02:05:06;3.50;;;2.50;;
5412;SDS011;2729;50.056;8.678;2023-08-08T02:07:32;7.97;;;2.17;;
5412;SDS011;2729;50.056;8.678;2023-08-08T02:09:58;2.67;;;2.47;;
5412;SDS011;2729;50.056;8.678;2023-08-08T02:12:24;4.47;;;2.30;;
5412;SDS011;2729;50.056;8.678;2023-08-08T02:14:50;3.33;;;2.00;;
5412;SDS011;2729;50.056;8.678;2023-08-08T02:17:15;2.40;;;2.20;;
5412;SDS011;2729;50.056;8.678;2023-08-08T02:19:41;5.20;;;2.07;;
5412;SDS011;2729;50.056;8.678;2023-08-08T02:22:07;2.33;;;2.20;;
5412;SDS011;2729;50.056;8.678;2023-08-08T02:24:32;2.30;;;2.20;;
5412;SDS011;2729;50.056;8.678;2023-08-08T02:26:58;3.43;;;3.13;;
5412;SDS011;2729;50.056;8.678;2023-08-08T02:29:24;2.23;;;2.13;;
5412;SDS011;2729;50.056;8.678;2023-08-08T02:31:49;10.90;;;2.30;;
5412;SDS011;2729;50.056;8.678;2023-08-08T02:34:15;2.43;;;2.23;;
5412;SDS011;2729;50.056;8.678;2023-08-08T02:36:41;2.43;;;2.23;;
5412;SDS011;2729;50.056;8.678;2023-08-08T02:39:06;2.30;;;2.10;;
5412;SDS011;2729;50.056;8.678;2023-08-08T02:41:32;3.03;;;2.37;;
5412;SDS011;2729;50.056;8.678;2023-08-08T02:43:58;2.23;;;2.03;;
5412;SDS011;2729;50.056;8.678;2023-08-08T02:46:23;2.30;;;2.20;;
5412;SDS011;2729;50.056;8.678;2023-08-08T02:48:49;3.73;;;2.37;;
5412;SDS011;2729;50.056;8.678;2023-08-08T02:51:14;3.30;;;2.50;;
5412;SDS011;2729;50.056;8.678;2023-08-08T02:53:40;2.10;;;1.93;;
5412;SDS011;2729;50.056;8.678;2023-08-08T02:56:06;2.37;;;2.17;;
5412;SDS011;2729;50.056;8.678;2023-08-08T02:58:36;4.20;;;2.20;;
5412;SDS011;2729;50.056;8.678;2023-08-08T03:01:02;3.97;;;2.40;;
5412;SDS011;2729;50.056;8.678;2023-08-08T03:03:28;2.53;;;2.30;;
5412;SDS011;2729;50.056;8.678;2023-08-08T03:05:54;3.70;;;2.17;;
5412;SDS011;2729;50.056;8.678;2023-08-08T03:08:19;5.00;;;2.50;;
5412;SDS011;2729;50.056;8.678;2023-08-08T03:10:45;6.20;;;2.10;;
5412;SDS011;2729;50.056;8.678;2023-08-08T03:13:11;2.37;;;2.27;;
5412;SDS011;2729;50.056;8.678;2023-08-08T03:15:38;2.33;;;2.13;;
5412;SDS011;2729;50.056;8.678;2023-08-08T03:18:05;5.70;;;1.83;;
5412;SDS011;2729;50.056;8.678;2023-08-08T03:20:30;3.77;;;2.97;;
5412;SDS011;2729;50.056;8.678;2023-08-08T03:22:56;1.97;;;1.87;;
5412;SDS011;2729;50.056;8.678;2023-08-08T03:25:22;6.47;;;2.47;;
5412;SDS011;2729;50.056;8.678;2023-08-08T03:27:48;3.40;;;3.10;;
5412;SDS011;2729;50.056;8.678;2023-08-08T03:30:14;2.23;;;2.13;;
5412;SDS011;2729;50.056;8.678;2023-08-08T03:32:41;2.60;;;2.40;;
5412;SDS011;2729;50.056;8.678;2023-08-08T03:35:07;5.30;;;2.33;;
5412;SDS011;2729;50.056;8.678;2023-08-08T03:37:35;2.10;;;2.00;;
5412;SDS011;2729;50.056;8.678;2023-08-08T03:40:00;3.40;;;2.63;;
5412;SDS011;2729;50.056;8.678;2023-08-08T03:42:29;4.60;;;2.50;;
5412;SDS011;2729;50.056;8.678;2023-08-08T03:44:56;2.57;;;2.37;;
5412;SDS011;2729;50.056;8.678;2023-08-08T03:47:21;2.23;;;2.13;;
5412;SDS011;2729;50.056;8.678;2023-08-08T03:49:47;3.03;;;2.13;;
5412;SDS011;2729;50.056;8.678;2023-08-08T03:52:13;4.40;;;2.20;;
5412;SDS011;2729;50.056;8.678;2023-08-08T03:54:39;2.00;;;1.90;;
5412;SDS011;2729;50.056;8.678;2023-08-08T03:57:05;3.60;;;2.30;;
5412;SDS011;2729;50.056;8.678;2023-08-08T03:59:30;2.40;;;2.20;;
5412;SDS011;2729;50.056;8.678;2023-08-08T04:01:56;3.23;;;2.23;;
5412;SDS011;2729;50.056;8.678;2023-08-08T04:04:21;3.03;;;2.23;;
5412;SDS011;2729;50.056;8.678;2023-08-08T04:06:48;2.30;;;2.20;;
5412;SDS011;2729;50.056;8.678;2023-08-08T04:09:14;8.40;;;2.30;;
5412;SDS011;2729;50.056;8.678;2023-08-08T04:11:39;3.23;;;2.33;;
5412;SDS011;2729;50.056;8.678;2023-08-08T04:14:05;4.03;;;2.37;;
5412;SDS011;2729;50.056;8.678;2023-08-08T04:16:30;2.10;;;2.00;;
5412;SDS011;2729;50.056;8.678;2023-08-08T04:18:59;2.00;;;1.87;;
5412;SDS011;2729;50.056;8.678;2023-08-08T04:21:25;15.70;;;2.30;;
5412;SDS011;2729;50.056;8.678;2023-08-08T04:23:52;1.83;;;1.70;;
5412;SDS011;2729;50.056;8.678;2023-08-08T04:26:18;3.03;;;1.83;;
5412;SDS011;2729;50.056;8.678;2023-08-08T04:28:43;1.87;;;1.77;;
5412;SDS011;2729;50.056;8.678;2023-08-08T04:31:09;1.87;;;1.77;;
5412;SDS011;2729;50.056;8.678;2023-08-08T04:33:36;5.07;;;2.00;;
5412;SDS011;2729;50.056;8.678;2023-08-08T04:36:02;3.47;;;2.17;;
5412;SDS011;2729;50.056;8.678;2023-08-08T04:38:27;2.47;;;2.27;;
5412;SDS011;2729;50.056;8.678;2023-08-08T04:40:53;2.10;;;2.00;;
5412;SDS011;2729;50.056;8.678;2023-08-08T04:43:18;1.83;;;1.73;;
5412;SDS011;2729;50.056;8.678;2023-08-08T04:45:44;4.63;;;2.43;;
5412;SDS011;2729;50.056;8.678;2023-08-08T04:51:06;3.70;;;2.00;;
5412;SDS011;2729;50.056;8.678;2023-08-08T04:53:32;4.50;;;2.10;;
5412;SDS011;2729;50.056;8.678;2023-08-08T04:55:58;2.10;;;1.67;;
5412;SDS011;2729;50.056;8.678;2023-08-08T04:58:23;2.17;;;2.00;;
5412;SDS011;2729;50.056;8.678;2023-08-08T05:00:49;1.90;;;1.80;;
5412;SDS011;2729;50.056;8.678;2023-08-08T05:03:16;4.20;;;2.13;;
5412;SDS011;2729;50.056;8.678;2023-08-08T05:05:42;6.50;;;2.07;;
5412;SDS011;2729;50.056;8.678;2023-08-08T05:08:10;4.93;;;1.90;;
5412;SDS011;2729;50.056;8.678;2023-08-08T05:10:36;4.17;;;2.20;;
5412;SDS011;2729;50.056;8.678;2023-08-08T05:13:01;2.47;;;2.27;;
5412;SDS011;2729;50.056;8.678;2023-08-08T05:15:27;8.30;;;1.93;;
5412;SDS011;2729;50.056;8.678;2023-08-08T05:17:53;1.90;;;1.73;;
5412;SDS011;2729;50.056;8.678;2023-08-08T05:20:20;1.63;;;1.53;;
5412;SDS011;2729;50.056;8.678;2023-08-08T05:22:46;2.23;;;1.80;;
5412;SDS011;2729;50.056;8.678;2023-08-08T05:25:12;2.00;;;1.90;;
5412;SDS011;2729;50.056;8.678;2023-08-08T05:27:38;4.20;;;2.00;;
5412;SDS011;2729;50.056;8.678;2023-08-08T05:30:06;3.57;;;1.83;;
5412;SDS011;2729;50.056;8.678;2023-08-08T05:32:32;2.17;;;1.83;;
5412;SDS011;2729;50.056;8.678;2023-08-08T05:34:58;1.97;;;1.87;;
5412;SDS011;2729;50.056;8.678;2023-08-08T05:37:24;1.73;;;1.63;;
5412;SDS011;2729;50.056;8.678;2023-08-08T05:39:49;6.40;;;2.23;;
5412;SDS011;2729;50.056;8.678;2023-08-08T05:42:15;3.23;;;2.30;;
5412;SDS011;2729;50.056;8.678;2023-08-08T05:44:40;7.30;;;1.60;;
5412;SDS011;2729;50.056;8.678;2023-08-08T05:47:09;1.87;;;1.77;;
5412;SDS011;2729;50.056;8.678;2023-08-08T05:49:35;2.03;;;1.83;;
5412;SDS011;2729;50.056;8.678;2023-08-08T05:52:03;2.80;;;1.63;;
5412;SDS011;2729;50.056;8.678;2023-08-08T05:54:29;1.83;;;1.60;;
5412;SDS011;2729;50.056;8.678;2023-08-08T05:56:54;1.70;;;1.60;;
5412;SDS011;2729;50.056;8.678;2023-08-08T05:59:20;2.70;;;1.67;;
5412;SDS011;2729;50.056;8.678;2023-08-08T06:01:45;1.60;;;1.50;;
5412;SDS011;2729;50.056;8.678;2023-08-08T06:04:11;1.97;;;1.87;;
5412;SDS011;2729;50.056;8.678;2023-08-08T06:06:37;8.13;;;1.83;;
5412;SDS011;2729;50.056;8.678;2023-08-08T06:09:03;3.67;;;1.70;;
5412;SDS011;2729;50.056;8.678;2023-08-08T06:11:29;1.53;;;1.43;;
5412;SDS011;2729;50.056;8.678;2023-08-08T06:13:55;1.40;;;1.40;;
5412;SDS011;2729;50.056;8.678;2023-08-08T06:16:20;2.30;;;1.60;;
5412;SDS011;2729;50.056;8.678;2023-08-08T06:18:46;2.53;;;1.40;;
5412;SDS011;2729;50.056;8.678;2023-08-08T06:21:12;2.87;;;1.47;;
5412;SDS011;2729;50.056;8.678;2023-08-08T06:23:38;1.60;;;1.60;;
5412;SDS011;2729;50.056;8.678;2023-08-08T06:26:04;1.80;;;1.70;;
5412;SDS011;2729;50.056;8.678;2023-08-08T06:28:29;2.67;;;1.50;;
5412;SDS011;2729;50.056;8.678;2023-08-08T06:30:56;2.43;;;1.70;;
5412;SDS011;2729;50.056;8.678;2023-08-08T06:33:22;4.50;;;1.57;;
5412;SDS011;2729;50.056;8.678;2023-08-08T06:35:49;5.23;;;2.00;;
5412;SDS011;2729;50.056;8.678;2023-08-08T06:38:14;5.63;;;1.97;;
5412;SDS011;2729;50.056;8.678;2023-08-08T06:40:40;2.23;;;1.80;;
5412;SDS011;2729;50.056;8.678;2023-08-08T06:43:05;1.60;;;1.50;;
5412;SDS011;2729;50.056;8.678;2023-08-08T06:45:31;2.13;;;1.50;;
5412;SDS011;2729;50.056;8.678;2023-08-08T06:47:57;1.40;;;1.30;;
5412;SDS011;2729;50.056;8.678;2023-08-08T06:50:22;3.20;;;1.60;;
5412;SDS011;2729;50.056;8.678;2023-08-08T06:52:50;2.37;;;1.47;;
5412;SDS011;2729;50.056;8.678;2023-08-08T06:55:15;1.80;;;1.53;;
5412;SDS011;2729;50.056;8.678;2023-08-08T06:57:41;2.97;;;1.30;;
5412;SDS011;2729;50.056;8.678;2023-08-08T07:00:07;1.83;;;1.40;;
5412;SDS011;2729;50.056;8.678;2023-08-08T07:02:34;2.83;;;1.63;;
5412;SDS011;2729;50.056;8.678;2023-08-08T07:04:59;1.47;;;1.40;;
5412;SDS011;2729;50.056;8.678;2023-08-08T07:07:25;1.90;;;1.80;;
5412;SDS011;2729;50.056;8.678;2023-08-08T07:09:51;2.43;;;1.43;;
5412;SDS011;2729;50.056;8.678;2023-08-08T07:12:16;2.50;;;1.40;;
5412;SDS011;2729;50.056;8.678;2023-08-08T07:14:42;4.10;;;1.70;;
5412;SDS011;2729;50.056;8.678;2023-08-08T07:17:07;2.60;;;1.50;;
5412;SDS011;2729;50.056;8.678;2023-08-08T07:19:33;8.70;;;1.67;;
5412;SDS011;2729;50.056;8.678;2023-08-08T07:21:59;1.63;;;1.53;;
5412;SDS011;2729;50.056;8.678;2023-08-08T07:24:24;3.57;;;1.50;;
5412;SDS011;2729;50.056;8.678;2023-08-08T07:26:57;1.67;;;1.57;;
5412;SDS011;2729;50.056;8.678;2023-08-08T07:29:23;2.70;;;1.47;;
5412;SDS011;2729;50.056;8.678;2023-08-08T07:31:51;1.43;;;1.30;;
5412;SDS011;2729;50.056;8.678;2023-08-08T07:34:17;1.40;;;1.40;;
5412;SDS011;2729;50.056;8.678;2023-08-08T07:36:43;2.20;;;1.47;;
5412;SDS011;2729;50.056;8.678;2023-08-08T07:39:08;2.07;;;1.30;;
5412;SDS011;2729;50.056;8.678;2023-08-08T07:41:34;1.47;;;1.37;;
5412;SDS011;2729;50.056;8.678;2023-08-08T07:44:00;2.10;;;1.60;;
5412;SDS011;2729;50.056;8.678;2023-08-08T07:46:26;1.30;;;1.30;;
5412;SDS011;2729;50.056;8.678;2023-08-08T07:48:51;1.87;;;1.43;;
5412;SDS011;2729;50.056;8.678;2023-08-08T07:51:17;1.57;;;1.47;;
5412;SDS011;2729;50.056;8.678;2023-08-08T07:53:42;1.77;;;1.30;;
5412;SDS011;2729;50.056;8.678;2023-08-08T07:56:08;1.67;;;1.53;;
5412;SDS011;2729;50.056;8.678;2023-08-08T07:58:34;1.57;;;1.10;;
5412;SDS011;2729;50.056;8.678;2023-08-08T08:00:59;2.73;;;1.60;;
5412;SDS011;2729;50.056;8.678;2023-08-08T08:03:28;2.73;;;1.57;;
5412;SDS011;2729;50.056;8.678;2023-08-08T08:05:53;1.17;;;1.03;;
5412;SDS011;2729;50.056;8.678;2023-08-08T08:08:19;1.43;;;1.33;;
5412;SDS011;2729;50.056;8.678;2023-08-08T08:10:46;1.37;;;1.27;;
5412;SDS011;2729;50.056;8.678;2023-08-08T08:13:14;1.60;;;1.50;;
5412;SDS011;2729;50.056;8.678;2023-08-08T08:15:39;2.80;;;1.37;;
5412;SDS011;2729;50.056;8.678;2023-08-08T08:18:05;2.33;;;1.43;;
5412;SDS011;2729;50.056;8.678;2023-08-08T08:20:30;1.20;;;1.10;;
5412;SDS011;2729;50.056;8.678;2023-08-08T08:22:58;1.50;;;1.40;;
5412;SDS011;2729;50.056;8.678;2023-08-08T08:25:24;2.70;;;1.40;;
5412;SDS011;2729;50.056;8.678;2023-08-08T08:27:50;1.00;;;1.00;;
5412;SDS011;2729;50.056;8.678;2023-08-08T08:30:16;1.20;;;1.10;;
5412;SDS011;2729;50.056;8.678;2023-08-08T08:32:44;2.67;;;1.20;;
5412;SDS011;2729;50.056;8.678;2023-08-08T08:35:09;1.20;;;1.20;;
5412;SDS011;2729;50.056;8.678;2023-08-08T08:37:37;1.30;;;1.20;;
5412;SDS011;2729;50.056;8.678;2023-08-08T08:40:03;1.10;;;1.10;;
5412;SDS011;2729;50.056;8.678;2023-08-08T08:42:30;1.37;;;1.10;;
5412;SDS011;2729;50.056;8.678;2023-08-08T08:44:57;2.00;;;1.03;;
5412;SDS011;2729;50.056;8.678;2023-08-08T08:47:23;1.33;;;1.17;;
5412;SDS011;2729;50.056;8.678;2023-08-08T08:49:49;1.00;;;1.00;;
5412;SDS011;2729;50.056;8.678;2023-08-08T08:52:17;4.83;;;1.30;;
5412;SDS011;2729;50.056;8.678;2023-08-08T08:54:42;1.60;;;1.43;;
5412;SDS011;2729;50.056;8.678;2023-08-08T08:57:08;1.60;;;1.50;;
5412;SDS011;2729;50.056;8.678;2023-08-08T08:59:35;3.33;;;1.40;;
5412;SDS011;2729;50.056;8.678;2023-08-08T09:02:00;3.60;;;1.23;;
5412;SDS011;2729;50.056;8.678;2023-08-08T09:04:27;1.60;;;1.40;;
5412;SDS011;2729;50.056;8.678;2023-08-08T09:06:53;1.40;;;1.20;;
5412;SDS011;2729;50.056;8.678;2023-08-08T09:09:19;3.03;;;1.30;;
5412;SDS011;2729;50.056;8.678;2023-08-08T09:11:52;1.37;;;1.10;;
5412;SDS011;2729;50.056;8.678;2023-08-08T09:14:21;1.33;;;1.10;;
5412;SDS011;2729;50.056;8.678;2023-08-08T09:16:48;1.50;;;0.97;;
5412;SDS011;2729;50.056;8.678;2023-08-08T09:19:15;1.30;;;1.20;;
5412;SDS011;2729;50.056;8.678;2023-08-08T09:21:43;4.00;;;1.10;;
5412;SDS011;2729;50.056;8.678;2023-08-08T09:24:08;1.90;;;1.43;;
5412;SDS011;2729;50.056;8.678;2023-08-08T09:26:34;4.77;;;1.50;;
5412;SDS011;2729;50.056;8.678;2023-08-08T09:29:00;1.27;;;1.10;;
5412;SDS011;2729;50.056;8.678;2023-08-08T09:31:26;3.63;;;1.20;;
5412;SDS011;2729;50.056;8.678;2023-08-08T09:33:53;1.17;;;1.13;;
5412;SDS011;2729;50.056;8.678;2023-08-08T09:36:19;1.60;;;1.00;;
5412;SDS011;2729;50.056;8.678;2023-08-08T09:38:45;1.43;;;1.30;;
5412;SDS011;2729;50.056;8.678;2023-08-08T09:41:11;2.50;;;1.30;;
5412;SDS011;2729;50.056;8.678;2023-08-08T09:43:37;2.30;;;1.20;;
5412;SDS011;2729;50.056;8.678;2023-08-08T09:46:02;2.47;;;1.67;;
5412;SDS011;2729;50.056;8.678;2023-08-08T09:48:29;4.33;;;1.23;;
5412;SDS011;2729;50.056;8.678;2023-08-08T09:50:55;1.77;;;1.20;;
5412;SDS011;2729;50.056;8.678;2023-08-08T09:53:21;1.20;;;1.20;;
5412;SDS011;2729;50.056;8.678;2023-08-08T09:55:47;2.80;;;1.30;;
5412;SDS011;2729;50.056;8.678;2023-08-08T09:58:13;2.60;;;1.60;;
5412;SDS011;2729;50.056;8.678;2023-08-08T10:00:39;1.57;;;1.43;;
5412;SDS011;2729;50.056;8.678;2023-08-08T10:03:06;5.10;;;1.40;;
5412;SDS011;2729;50.056;8.678;2023-08-08T10:05:32;2.87;;;1.30;;
5412;SDS011;2729;50.056;8.678;2023-08-08T10:07:58;1.70;;;1.10;;
5412;SDS011;2729;50.056;8.678;2023-08-08T10:10:23;2.33;;;1.03;;
5412;SDS011;2729;50.056;8.678;2023-08-08T10:12:49;1.50;;;1.20;;
5412;SDS011;2729;50.056;8.678;2023-08-08T10:15:15;6.50;;;1.50;;
5412;SDS011;2729;50.056;8.678;2023-08-08T10:17:41;5.10;;;1.80;;
5412;SDS011;2729;50.056;8.678;2023-08-08T10:20:10;2.40;;;1.50;;
5412;SDS011;2729;50.056;8.678;2023-08-08T10:22:42;1.73;;;1.63;;
5412;SDS011;2729;50.056;8.678;2023-08-08T10:25:07;6.53;;;2.10;;
5412;SDS011;2729;50.056;8.678;2023-08-08T10:27:34;1.30;;;1.20;;
5412;SDS011;2729;50.056;8.678;2023-08-08T10:30:04;4.93;;;1.37;;
5412;SDS011;2729;50.056;8.678;2023-08-08T10:32:37;3.17;;;1.80;;
5412;SDS011;2729;50.056;8.678;2023-08-08T10:35:03;5.27;;;3.10;;
5412;SDS011;2729;50.056;8.678;2023-08-08T10:37:31;4.20;;;1.30;;
5412;SDS011;2729;50.056;8.678;2023-08-08T10:39:58;6.67;;;1.60;;
5412;SDS011;2729;50.056;8.678;2023-08-08T10:42:25;3.30;;;1.23;;
5412;SDS011;2729;50.056;8.678;2023-08-08T10:44:57;4.43;;;1.27;;
5412;SDS011;2729;50.056;8.678;2023-08-08T10:47:34;1.93;;;1.27;;
5412;SDS011;2729;50.056;8.678;2023-08-08T10:50:04;1.30;;;1.30;;
5412;SDS011;2729;50.056;8.678;2023-08-08T10:52:30;1.47;;;1.30;;
5412;SDS011;2729;50.056;8.678;2023-08-08T10:54:56;2.23;;;1.50;;
5412;SDS011;2729;50.056;8.678;2023-08-08T10:57:25;3.47;;;1.97;;
5412;SDS011;2729;50.056;8.678;2023-08-08T10:59:50;1.60;;;1.50;;
5412;SDS011;2729;50.056;8.678;2023-08-08T11:02:16;2.70;;;1.40;;
5412;SDS011;2729;50.056;8.678;2023-08-08T11:04:42;4.20;;;1.30;;
5412;SDS011;2729;50.056;8.678;2023-08-08T11:07:07;1.10;;;1.10;;
5412;SDS011;2729;50.056;8.678;2023-08-08T11:09:34;2.33;;;1.50;;
5412;SDS011;2729;50.056;8.678;2023-08-08T11:12:00;3.07;;;1.90;;
5412;SDS011;2729;50.056;8.678;2023-08-08T11:14:25;10.73;;;1.40;;
5412;SDS011;2729;50.056;8.678;2023-08-08T11:16:51;1.17;;;1.17;;
5412;SDS011;2729;50.056;8.678;2023-08-08T11:19:18;1.30;;;1.20;;
5412;SDS011;2729;50.056;8.678;2023-08-08T11:21:45;1.30;;;1.20;;
5412;SDS011;2729;50.056;8.678;2023-08-08T11:24:11;2.07;;;1.60;;
5412;SDS011;2729;50.056;8.678;2023-08-08T11:26:38;1.60;;;1.30;;
5412;SDS011;2729;50.056;8.678;2023-08-08T11:29:04;1.43;;;1.33;;
5412;SDS011;2729;50.056;8.678;2023-08-08T11:31:31;1.47;;;1.37;;
5412;SDS011;2729;50.056;8.678;2023-08-08T11:33:57;1.27;;;1.20;;
5412;SDS011;2729;50.056;8.678;2023-08-08T11:36:24;3.17;;;1.30;;
5412;SDS011;2729;50.056;8.678;2023-08-08T11:38:50;1.67;;;1.37;;
5412;SDS011;2729;50.056;8.678;2023-08-08T11:41:20;1.53;;;1.43;;
5412;SDS011;2729;50.056;8.678;2023-08-08T11:43:47;2.97;;;1.40;;
5412;SDS011;2729;50.056;8.678;2023-08-08T11:46:13;2.60;;;1.40;;
5412;SDS011;2729;50.056;8.678;2023-08-08T11:48:39;1.50;;;1.40;;
5412;SDS011;2729;50.056;8.678;2023-08-08T11:51:05;3.00;;;1.57;;
5412;SDS011;2729;50.056;8.678;2023-08-08T11:53:31;2.70;;;1.47;;
5412;SDS011;2729;50.056;8.678;2023-08-08T11:55:56;2.57;;;1.50;;
5412;SDS011;2729;50.056;8.678;2023-08-08T11:58:23;2.47;;;1.50;;
5412;SDS011;2729;50.056;8.678;2023-08-08T12:00:50;1.47;;;1.37;;
5412;SDS011;2729;50.056;8.678;2023-08-08T12:03:16;4.80;;;1.40;;
5412;SDS011;2729;50.056;8.678;2023-08-08T12:05:45;2.10;;;1.33;;
5412;SDS011;2729;50.056;8.678;2023-08-08T12:08:11;1.60;;;1.50;;
5412;SDS011;2729;50.056;8.678;2023-08-08T12:10:36;2.03;;;1.67;;
5412;SDS011;2729;50.056;8.678;2023-08-08T12:13:02;1.60;;;1.40;;
5412;SDS011;2729;50.056;8.678;2023-08-08T12:15:28;1.43;;;1.17;;
5412;SDS011;2729;50.056;8.678;2023-08-08T12:17:55;2.00;;;1.80;;
5412;SDS011;2729;50.056;8.678;2023-08-08T12:20:20;1.27;;;1.17;;
5412;SDS011;2729;50.056;8.678;2023-08-08T12:22:46;1.40;;;1.30;;
5412;SDS011;2729;50.056;8.678;2023-08-08T12:25:13;3.50;;;1.40;;
5412;SDS011;2729;50.056;8.678;2023-08-08T12:27:40;1.20;;;1.00;;
5412;SDS011;2729;50.056;8.678;2023-08-08T12:30:06;1.50;;;1.43;;
5412;SDS011;2729;50.056;8.678;2023-08-08T12:32:33;2.70;;;1.33;;
5412;SDS011;2729;50.056;8.678;2023-08-08T12:34:59;1.70;;;1.60;;
5412;SDS011;2729;50.056;8.678;2023-08-08T12:37:25;1.40;;;1.40;;
5412;SDS011;2729;50.056;8.678;2023-08-08T12:39:50;1.43;;;1.40;;
5412;SDS011;2729;50.056;8.678;2023-08-08T12:42:16;1.87;;;1.67;;
5412;SDS011;2729;50.056;8.678;2023-08-08T12:44:43;2.90;;;1.67;;
5412;SDS011;2729;50.056;8.678;2023-08-08T12:47:09;4.10;;;1.40;;
5412;SDS011;2729;50.056;8.678;2023-08-08T12:49:35;2.80;;;1.23;;
5412;SDS011;2729;50.056;8.678;2023-08-08T12:52:00;2.40;;;1.93;;
5412;SDS011;2729;50.056;8.678;2023-08-08T12:54:26;1.57;;;1.43;;
5412;SDS011;2729;50.056;8.678;2023-08-08T12:56:52;2.70;;;1.40;;
5412;SDS011;2729;50.056;8.678;2023-08-08T12:59:17;1.63;;;1.30;;
5412;SDS011;2729;50.056;8.678;2023-08-08T13:01:43;1.80;;;1.37;;
5412;SDS011;2729;50.056;8.678;2023-08-08T13:04:08;1.97;;;1.43;;
5412;SDS011;2729;50.056;8.678;2023-08-08T13:06:34;7.80;;;1.47;;
5412;SDS011;2729;50.056;8.678;2023-08-08T13:09:00;2.97;;;1.40;;
5412;SDS011;2729;50.056;8.678;2023-08-08T13:11:27;1.83;;;1.73;;
5412;SDS011;2729;50.056;8.678;2023-08-08T13:13:52;2.63;;;1.47;;
5412;SDS011;2729;50.056;8.678;2023-08-08T13:16:18;6.53;;;1.40;;
5412;SDS011;2729;50.056;8.678;2023-08-08T13:18:43;1.43;;;1.10;;
5412;SDS011;2729;50.056;8.678;2023-08-08T13:21:09;2.77;;;1.20;;
5412;SDS011;2729;50.056;8.678;2023-08-08T13:23:36;2.40;;;1.30;;
5412;SDS011;2729;50.056;8.678;2023-08-08T13:26:01;2.20;;;1.50;;
5412;SDS011;2729;50.056;8.678;2023-08-08T13:28:29;3.13;;;1.73;;
5412;SDS011;2729;50.056;8.678;2023-08-08T13:30:54;1.77;;;1.30;;
5412;SDS011;2729;50.056;8.678;2023-08-08T13:33:20;3.47;;;1.10;;
5412;SDS011;2729;50.056;8.678;2023-08-08T13:35:49;1.20;;;1.20;;
5412;SDS011;2729;50.056;8.678;2023-08-08T13:38:15;2.30;;;1.20;;
5412;SDS011;2729;50.056;8.678;2023-08-08T13:40:41;1.30;;;1.23;;
5412;SDS011;2729;50.056;8.678;2023-08-08T13:43:06;4.13;;;1.23;;
5412;SDS011;2729;50.056;8.678;2023-08-08T13:45:32;18.70;;;1.70;;
5412;SDS011;2729;50.056;8.678;2023-08-08T13:47:58;2.33;;;1.00;;
5412;SDS011;2729;50.056;8.678;2023-08-08T13:50:23;1.90;;;1.10;;
5412;SDS011;2729;50.056;8.678;2023-08-08T13:52:49;1.27;;;1.27;;
5412;SDS011;2729;50.056;8.678;2023-08-08T13:55:15;1.27;;;1.27;;
5412;SDS011;2729;50.056;8.678;2023-08-08T13:57:40;3.43;;;1.43;;
5412;SDS011;2729;50.056;8.678;2023-08-08T14:00:06;1.33;;;1.20;;
5412;SDS011;2729;50.056;8.678;2023-08-08T14:02:33;3.07;;;1.40;;
5412;SDS011;2729;50.056;8.678;2023-08-08T14:04:59;2.33;;;1.20;;
5412;SDS011;2729;50.056;8.678;2023-08-08T14:07:24;1.53;;;1.20;;
5412;SDS011;2729;50.056;8.678;2023-08-08T14:09:50;1.40;;;1.30;;
5412;SDS011;2729;50.056;8.678;2023-08-08T14:12:15;1.77;;;1.23;;
5412;SDS011;2729;50.056;8.678;2023-08-08T14:14:42;1.87;;;1.40;;
5412;SDS011;2729;50.056;8.678;2023-08-08T14:17:07;1.20;;;1.10;;
5412;SDS011;2729;50.056;8.678;2023-08-08T14:19:33;1.20;;;1.20;;
5412;SDS011;2729;50.056;8.678;2023-08-08T14:21:59;1.33;;;1.10;;
5412;SDS011;2729;50.056;8.678;2023-08-08T14:24:27;1.20;;;1.10;;
5412;SDS011;2729;50.056;8.678;2023-08-08T14:26:53;1.03;;;1.03;;
5412;SDS011;2729;50.056;8.678;2023-08-08T14:29:18;1.43;;;1.30;;
5412;SDS011;2729;50.056;8.678;2023-08-08T14:31:44;1.53;;;1.33;;
5412;SDS011;2729;50.056;8.678;2023-08-08T14:34:10;1.77;;;1.10;;
5412;SDS011;2729;50.056;8.678;2023-08-08T14:36:35;2.60;;;1.47;;
5412;SDS011;2729;50.056;8.678;2023-08-08T14:39:03;1.00;;;1.00;;
5412;SDS011;2729;50.056;8.678;2023-08-08T14:41:29;1.27;;;1.17;;
5412;SDS011;2729;50.056;8.678;2023-08-08T14:43:55;1.17;;;1.00;;
5412;SDS011;2729;50.056;8.678;2023-08-08T14:46:20;2.00;;;1.30;;
5412;SDS011;2729;50.056;8.678;2023-08-08T14:48:46;1.60;;;1.50;;
5412;SDS011;2729;50.056;8.678;2023-08-08T14:51:12;1.07;;;1.00;;
5412;SDS011;2729;50.056;8.678;2023-08-08T14:53:42;1.13;;;1.13;;
5412;SDS011;2729;50.056;8.678;2023-08-08T14:56:07;3.40;;;1.30;;
5412;SDS011;2729;50.056;8.678;2023-08-08T14:58:33;3.80;;;1.20;;
5412;SDS011;2729;50.056;8.678;2023-08-08T15:01:00;1.40;;;1.13;;
5412;SDS011;2729;50.056;8.678;2023-08-08T15:03:26;5.00;;;1.30;;
5412;SDS011;2729;50.056;8.678;2023-08-08T15:05:52;2.70;;;1.13;;
5412;SDS011;2729;50.056;8.678;2023-08-08T15:08:17;1.60;;;1.43;;
5412;SDS011;2729;50.056;8.678;2023-08-08T15:10:44;2.03;;;1.30;;
5412;SDS011;2729;50.056;8.678;2023-08-08T15:13:09;5.20;;;1.60;;